Tiempo atmosférico en la estación meteorológica de Alforja, Tarragona (406 m.)

Fecha
DESCASC
Temp. máxima en grados centígrados (hora)
DESCASC
Temp. mínima en grados centígrados (hora)
DESCASC
Temp. media en grados centígrados
DESCASC
Racha de viento máxima en m/sg (hora)
DESCASC
Velocidad máxima media en intervalos de 10 minutos(hora)
DESCASC
Precipitaciones diarias en mm
DESCASC
Precipitaciones de 00:00 a 06:00 en mm
DESCASC
Precipitaciones de 06:00 a 12:00 en mm
DESCASC
Precipitaciones de 12:00 a 18:00 en mm
DESCASC
Precipitaciones de 18:00 a 24:00 en mm
DESCASC
23-11-2017 19.9 (13:20) 5.2 (01:40) 12.5 4.44 (05:30) 3.06 (23:59) 0 0 0 0 0
22-11-2017 17.9 (14:20) 3.8 (07:20) 10.8 4.72 (12:40) 2.78 (12:10) 0 0 0 0 0
21-11-2017 19.8 (12:40) 5.6 (23:10) 12.7 7.78 (09:30) 4.44 (11:20) 0 0 0 0 0
20-11-2017 17.9 (15:00) 5.1 (20:30) 11.5 9.44 (09:30) 5.28 (06:40) 0 0 0 0 0
19-11-2017 15.1 (14:50) 6.2 (00:00) 10.7 12.22 (12:30) 7.78 (07:30) 0 0 0 0 0
18-11-2017 15.8 (14:30) 7.8 (00:00) 11.8 11.67 (07:30) 7.22 (07:30) 0 0 0 0 0
17-11-2017 17.4 (14:40) 4.8 (00:00) 11.1 10.28 (13:00) 6.39 (13:10) 0 0 0 0 0
16-11-2017 16.7 (14:30) 2.2 (00:00) 9.5 4.72 (15:00) 3.06 (19:40) 0 0 0 0 0
15-11-2017 14.4 (15:30) 3.5 (00:00) 8.9 15.28 (04:20) 10 (04:20) 0 0 0 0 0
14-11-2017 12.8 (15:30) 3.6 (00:00) 8.2 15.83 (07:50) 9.72 (07:50) 0 0 0 0 0
13-11-2017 14.1 (15:10) 5 (00:00) 9.6 15.83 (22:30) 9.17 (11:50) 0 0 0 0 0
12-11-2017 17.8 (14:30) 9.7 (00:00) 13.7 17.78 (03:40) 10.28 (11:00) 0 0 0 0 0
11-11-2017 16.7 (15:20) 9.9 (00:00) 13.3 16.11 (11:30) 9.44 (11:10) 0 0 0 0 0
10-11-2017 14.1 (13:40) 4.9 (00:00) 9.5 15 (11:50) 8.89 (11:40) 0 0 0 0 0
09-11-2017 14.2 (15:50) 3.8 (00:00) 9 15.28 (08:00) 8.89 (08:00) 0 0 0 0 0
08-11-2017 11.6 (14:00) 5.4 (00:00) 8.5 14.44 (08:20) 8.33 (10:40) 0 0 0 0 0
07-11-2017 12.6 (15:50) 3.5 (00:00) 8.1 17.5 (09:50) 10.28 (11:00) 0 0 0 0 0
06-11-2017 14 (14:10) 6.2 (00:00) 10.1 14.17 (13:30) 7.22 (22:40) 0 0 0 0 0
05-11-2017 15.3 (14:20) 9 (00:00) 12.2 18.33 (12:50) 10.28 (11:40) 0.2 0.2 0 0 0
04-11-2017 18.1 (13:30) 11.7 (00:00) 14.9 9.17 (14:30) 4.72 (23:59) 31.4 0 0.6 12.6 18.2
03-11-2017 20.4 (13:20) 11.4 (00:00) 15.9 6.11 (15:10) 3.06 (15:20) 0 0 0 0 0
02-11-2017 19.2 (14:10) 11 (07:30) 15.1 4.17 (13:10) 2.5 (01:30) 0 0 0 0 0
01-11-2017 17.9 (13:00) 12.2 (00:00) 15 5.28 (14:50) 2.22 (14:50) 0 0 0 0 0
31-10-2017 18.3 (12:40) 8.4 (00:00) 13.3 10.56 (04:10) 6.39 (05:20) 0 0 0 0 0
30-10-2017 19.9 (15:30) 11.7 (00:00) 15.8 16.39 (00:30) 9.17 (00:30) 0 0 0 0 0
29-10-2017 19.1 (14:50) 9.7 (00:00) 14.4 16.94 (21:30) 9.17 (00:10) 0 0 0 0 0
28-10-2017 21.1 (17:00) 12.5 (00:00) 16.8 14.17 (23:50) 8.61 (23:59) 0 0 0 0 0
27-10-2017 23.6 (15:20) 12 (00:00) 17.8 16.11 (13:30) 9.17 (13:20) 0 0 0 0 0
26-10-2017 24.7 (15:40) 9.7 (00:00) 17.2 4.72 (14:20) 2.5 (14:50) 0 0 0 0 0

Gráficas

Temp. máximas Temp. mínimas Temp. medias Precipitaciones Rachas de viento máximas Velocidades máximas media en intervalos de 10 minutos

Datos horarios

Fecha y hora oficial Temperatura (ºC) Velocidad del viento (km/h) Dirección del viento Racha (km/h) Dirección de racha Precipitación (mm) Presión (hPa) Tendencia (hPa) Humedad (%)
2017-11-24 23:00:00 14.1 12 Sudoeste 17 Sudoeste 0 -- -- 60
2017-11-24 22:00:00 13.5 12 Sudoeste 17 Sudoeste 0 -- -- 62
2017-11-24 21:00:00 13.1 10 Oeste 19 Sudoeste 0 -- -- 64
2017-11-24 20:00:00 12.6 7 Oeste 10 Oeste 0 -- -- 65
2017-11-24 19:00:00 13.2 6 Oeste 11 Sudoeste 0 -- -- 62
2017-11-24 18:00:00 15.6 5 Sudoeste 17 Oeste 0 -- -- 55
2017-11-24 17:00:00 18.3 8 Oeste 24 Sudoeste 0 -- -- 48
2017-11-24 16:00:00 20.3 16 Oeste 33 Sudoeste 0 -- -- 42
2017-11-24 15:00:00 20.1 18 Oeste 37 Noroeste 0 -- -- 42
2017-11-24 14:00:00 20.6 22 Oeste 40 Oeste 0 -- -- 40
2017-11-24 13:00:00 20.9 17 Oeste 31 Oeste 0 -- -- 37
2017-11-24 12:00:00 20.2 17 Oeste 28 Oeste 0 -- -- 37
2017-11-24 11:00:00 18.8 10 Oeste 17 Oeste 0 -- -- 38
2017-11-24 10:00:00 16.6 8 Sudoeste 14 Sudoeste 0 -- -- 44
2017-11-24 09:00:00 15.6 8 Sudoeste 15 Sudoeste 0 -- -- 42
2017-11-24 08:00:00 15.6 10 Oeste 17 Oeste 0 -- -- 39
2017-11-24 07:00:00 15.8 11 Oeste 20 Oeste 0 -- -- 37
2017-11-24 06:00:00 14.6 11 Oeste 17 Oeste 0 -- -- 41
2017-11-24 05:00:00 14.4 12 Oeste 19 Oeste 0 -- -- 41
2017-11-24 04:00:00 15.8 14 Oeste 22 Noroeste 0 -- -- 37
2017-11-24 03:00:00 15 11 Oeste 21 Oeste 0 -- -- 39
2017-11-24 02:00:00 15.4 15 Oeste 28 Noroeste 0 -- -- 39
2017-11-24 01:00:00 14.9 12 Oeste 21 Oeste 0 -- -- 42
2017-11-24 00:00:00 10.4 11 Oeste 14 Oeste 0 -- -- 59
2017-11-23 23:00:00 8.6 8 Oeste 10 Oeste 0 -- -- 73
2017-11-23 22:00:00 9.5 3 Norte 13 Sudoeste 0 -- -- 70
2017-11-23 21:00:00 10.4 5 Oeste 14 Oeste 0 -- -- 67
2017-11-23 20:00:00 10.4 6 Oeste 12 Sudoeste 0 -- -- 70
2017-11-23 19:00:00 10.8 3 Oeste 13 Oeste 0 -- -- 87
2017-11-23 18:00:00 12.9 4 Oeste 7 Oeste 0 -- -- 84
2017-11-23 17:00:00 16.6 4 Nordeste 10 Este 0 -- -- 79
2017-11-23 16:00:00 19.4 5 Sudeste 12 Este 0 -- -- 67
2017-11-23 15:00:00 19.7 5 Este 13 Este 0 -- -- 64
2017-11-23 14:00:00 19.5 6 Este 15 Este 0 -- -- 64
2017-11-23 13:00:00 19.2 5 Este 14 Sudeste 0 -- -- 55
2017-11-23 12:00:00 18.3 5 Sudeste 9 Este 0 -- -- 61
2017-11-23 11:00:00 16.1 3 Sudeste 11 Sudeste 0 -- -- 68
2017-11-23 10:00:00 12.7 3 Sur 10 Sudoeste 0 -- -- 93
2017-11-23 09:00:00 7.2 2 Oeste 5 Sudoeste 0 -- -- 99
2017-11-23 08:00:00 7 2 Noroeste 9 Oeste 0 -- -- 98
2017-11-23 07:00:00 6.6 0 Calma 12 Oeste 0 -- -- 98
2017-11-23 06:00:00 6.7 3 Oeste 16 Sudoeste 0 -- -- 98
2017-11-23 05:00:00 6.1 7 Oeste 10 Oeste 0 -- -- 98
2017-11-23 04:00:00 5.8 3 Noroeste 13 Oeste 0 -- -- 96
2017-11-23 03:00:00 5.7 5 Oeste 10 Oeste 0 -- -- 97
2017-11-23 02:00:00 5.7 6 Oeste 12 Oeste 0 -- -- 96
2017-11-23 01:00:00 5.5 4 Oeste 10 Oeste 0 -- -- 96
2017-11-23 00:00:00 5.9 5 Oeste 12 Oeste 0 -- -- 96
2017-11-22 23:00:00 6.3 4 Oeste 11 Oeste 0 -- -- 95
2017-11-22 22:00:00 7 8 Oeste 10 Sudoeste 0 -- -- 93
2017-11-22 21:00:00 9.1 6 Oeste 10 Oeste 0 -- -- 89
2017-11-22 20:00:00 11.1 4 Nordeste 6 Este 0 -- -- 92
2017-11-22 19:00:00 10.2 0 Calma 5 Oeste 0 -- -- 88
2017-11-22 18:00:00 10.5 0 Calma 8 Norte 0 -- -- 82
2017-11-22 17:00:00 13.8 3 Nordeste 13 Este 0 -- -- 78
2017-11-22 16:00:00 16.4 7 Este 15 Sudeste 0 -- -- 64
2017-11-22 15:00:00 17.2 7 Este 14 Sudeste 0 -- -- 56
2017-11-22 14:00:00 17.8 7 Sudeste 16 Este 0 -- -- 48
2017-11-22 13:00:00 17.5 7 Este 17 Este 0 -- -- 51
2017-11-22 12:00:00 17.2 8 Este 13 Este 0 -- -- 46
2017-11-22 11:00:00 15.9 4 Sudeste 7 Sudeste 0 -- -- 48
2017-11-22 10:00:00 13.1 2 Sudeste 6 Sudoeste 0 -- -- 51
2017-11-22 09:00:00 6.7 3 Sudoeste 9 Oeste 0 -- -- 75
2017-11-22 08:00:00 4 0 Calma 10 Oeste 0 -- -- 76
2017-11-22 07:00:00 4.1 2 Oeste 8 Oeste 0 -- -- 77
2017-11-22 06:00:00 4.5 3 Oeste 14 Oeste 0 -- -- 78
2017-11-22 05:00:00 4.4 4 Oeste 9 Oeste 0 -- -- 78
2017-11-22 04:00:00 4.5 0 Calma 11 Oeste 0 -- -- 78
2017-11-22 03:00:00 4.9 5 Oeste 9 Oeste 0 -- -- 79
2017-11-22 02:00:00 5.7 5 Oeste 8 Sudoeste 0 -- -- 77
2017-11-22 01:00:00 6.5 5 Oeste 10 Oeste 0 -- -- 75
2017-11-22 00:00:00 5.9 5 Oeste 9 Sudoeste 0 -- -- 77
2017-11-21 23:00:00 5.7 0 Calma 8 Oeste 0 -- -- 78
2017-11-21 22:00:00 6.5 4 Oeste 8 Oeste 0 -- -- 75
2017-11-21 21:00:00 7.6 5 Oeste 12 Oeste 0 -- -- 71
2017-11-21 20:00:00 8.8 8 Oeste 13 Oeste 0 -- -- 64
2017-11-21 19:00:00 10 6 Oeste 15 Oeste 0 -- -- 60
2017-11-21 18:00:00 12.3 6 Oeste 23 Oeste 0 -- -- 56
2017-11-21 17:00:00 15 11 Oeste 24 Sudoeste 0 -- -- 50
2017-11-21 16:00:00 17.7 12 Oeste 24 Sudoeste 0 -- -- 44
2017-11-21 15:00:00 19 13 Oeste 23 Oeste 0 -- -- 41
2017-11-21 14:00:00 19.1 12 Oeste 22 Noroeste 0 -- -- 39
2017-11-21 13:00:00 19.1 9 Nordeste 19 Sudoeste 0 -- -- 38
2017-11-21 12:00:00 18.2 7 Norte 28 Noroeste 0 -- -- 39
2017-11-21 11:00:00 17.6 12 Oeste 25 Noroeste 0 -- -- 36
2017-11-21 10:00:00 16.4 12 Oeste 28 Oeste 0 -- -- 37
2017-11-21 09:00:00 13.7 10 Noroeste 20 Sur 0 -- -- 41
2017-11-21 08:00:00 10.5 15 Sudoeste 20 Sudoeste 0 -- -- 48
2017-11-21 07:00:00 10.1 9 Sudoeste 22 Sudoeste 0 -- -- 47
2017-11-21 06:00:00 10.8 10 Sudoeste 22 Sudoeste 0 -- -- 44
2017-11-21 05:00:00 10.5 10 Sudoeste 20 Sudoeste 0 -- -- 45
2017-11-21 04:00:00 9.9 9 Sudoeste 18 Sudoeste 0 -- -- 51
2017-11-21 03:00:00 9.7 10 Oeste 21 Oeste 0 -- -- 54
2017-11-21 02:00:00 9.4 14 Sudoeste 19 Sudoeste 0 -- -- 61
2017-11-21 01:00:00 8.3 11 Oeste 17 Oeste 0 -- -- 64
2017-11-21 00:00:00 7.5 10 Oeste 15 Oeste 0 -- -- 62
2017-11-20 23:00:00 6.6 9 Oeste 14 Sudoeste 0 -- -- 68
2017-11-20 22:00:00 6.7 10 Oeste 14 Sudoeste 0 -- -- 69
2017-11-20 21:00:00 5.4 5 Oeste 9 Oeste 0 -- -- 82
2017-11-20 20:00:00 5.6 2 Oeste 12 Oeste 0 -- -- 80
2017-11-20 19:00:00 6.9 4 Sudoeste 12 Oeste 0 -- -- 77
2017-11-20 18:00:00 9.5 6 Oeste 10 Oeste 0 -- -- 69
2017-11-20 17:00:00 13.9 3 Sudoeste 13 Sudeste 0 -- -- 53
2017-11-20 16:00:00 17.1 8 Sur 19 Oeste 0 -- -- 38
2017-11-20 15:00:00 17.9 12 Oeste 24 Sudoeste 0 -- -- 36
2017-11-20 14:00:00 17 16 Oeste 28 Oeste 0 -- -- 39
2017-11-20 13:00:00 16.7 18 Oeste 29 Oeste 0 -- -- 38
2017-11-20 12:00:00 16.1 16 Oeste 27 Oeste 0 -- -- 39
2017-11-20 11:00:00 15.7 12 Oeste 24 Sudoeste 0 -- -- 38
2017-11-20 10:00:00 13 14 Sudoeste 34 Noroeste 0 -- -- 41
2017-11-20 09:00:00 10.4 17 Oeste 26 Sudoeste 0 -- -- 46
2017-11-20 08:00:00 8.2 12 Oeste 24 Oeste 0 -- -- 51
2017-11-20 07:00:00 9.3 16 Sudoeste 28 Oeste 0 -- -- 48
2017-11-20 06:00:00 9.6 18 Sudoeste 28 Sudoeste 0 -- -- 47
2017-11-20 05:00:00 9.5 13 Oeste 27 Sudoeste 0 -- -- 50
2017-11-20 04:00:00 9.8 11 Oeste 24 Oeste 0 -- -- 51
2017-11-20 03:00:00 8.8 12 Oeste 19 Oeste 0 -- -- 57
2017-11-20 02:00:00 8.3 6 Oeste 19 Sudoeste 0 -- -- 56
2017-11-20 01:00:00 8.9 9 Sudoeste 21 Oeste 0 -- -- 48
2017-11-20 00:00:00 9.4 11 Oeste 22 Noroeste 0 -- -- 45
2017-11-19 23:00:00 9.1 10 Oeste 22 Oeste 0 -- -- 49
2017-11-19 22:00:00 8 13 Oeste 18 Oeste 0 -- -- 59
2017-11-19 21:00:00 8.6 3 Oeste 22 Oeste 0 -- -- 66
2017-11-19 20:00:00 9.4 12 Oeste 22 Sudoeste 0 -- -- 66
2017-11-19 19:00:00 9.4 15 Oeste 24 Oeste 0 -- -- 65
2017-11-19 18:00:00 10.5 14 Oeste 20 Oeste 0 -- -- 64
2017-11-19 17:00:00 12.4 12 Sudoeste 23 Sudoeste 0 -- -- 59
2017-11-19 16:00:00 14.5 17 Oeste 28 Sudoeste 0 -- -- 54
2017-11-19 15:00:00 15.1 16 Sudoeste 32 Sudoeste 0 -- -- 53
2017-11-19 14:00:00 14.8 18 Sudoeste 36 Sudoeste 0 -- -- 52
2017-11-19 13:00:00 14.2 19 Oeste 44 Sudoeste 0 -- -- 54
2017-11-19 12:00:00 13.4 20 Oeste 35 Sudoeste 0 -- -- 57
2017-11-19 11:00:00 11.5 19 Oeste 42 Sudoeste 0 -- -- 61
2017-11-19 10:00:00 10.2 18 Sudoeste 33 Oeste 0 -- -- 68
2017-11-19 09:00:00 7.5 23 Sudoeste 40 Oeste 0 -- -- 77
2017-11-19 08:00:00 6.2 25 Oeste 42 Oeste 0 -- -- 82
2017-11-19 07:00:00 6.4 21 Oeste 44 Oeste 0 -- -- 80
2017-11-19 06:00:00 7.3 24 Oeste 39 Oeste 0 -- -- 77
2017-11-19 05:00:00 7.8 21 Oeste 38 Oeste 0 -- -- 75
2017-11-19 04:00:00 8 19 Sudoeste 39 Oeste 0 -- -- 74
2017-11-19 03:00:00 8.6 20 Oeste 35 Oeste 0 -- -- 73
2017-11-19 02:00:00 9 20 Oeste 31 Oeste 0 -- -- 72
2017-11-19 01:00:00 9.7 19 Oeste 33 Oeste 0 -- -- 70
2017-11-19 00:00:00 10 14 Sudoeste 24 Oeste 0 -- -- 66
2017-11-18 23:00:00 9.5 12 Sudoeste 22 Sudoeste 0 -- -- 67
2017-11-18 22:00:00 9.2 10 Sudoeste 20 Sudoeste 0 -- -- 67
2017-11-18 21:00:00 7.9 13 Oeste 17 Sudoeste 0 -- -- 73
2017-11-18 20:00:00 8.3 13 Sudoeste 17 Sudoeste 0 -- -- 73
2017-11-18 19:00:00 9.2 10 Sudoeste 20 Sudoeste 0 -- -- 69
2017-11-18 18:00:00 10.8 9 Oeste 20 Oeste 0 -- -- 64
2017-11-18 17:00:00 13.4 13 Oeste 26 Sudoeste 0 -- -- 55
2017-11-18 16:00:00 15.2 16 Sudoeste 30 Oeste 0 -- -- 50
2017-11-18 15:00:00 15.6 19 Sudoeste 30 Sudoeste 0 -- -- 50
2017-11-18 14:00:00 15.3 19 Sudoeste 31 Oeste 0 -- -- 51
2017-11-18 13:00:00 14.8 17 Sudoeste 33 Sudoeste 0 -- -- 54
2017-11-18 12:00:00 13.5 18 Oeste 38 Oeste 0 -- -- 57
2017-11-18 11:00:00 12.5 14 Oeste 34 Noroeste 0 -- -- 59
2017-11-18 10:00:00 11 15 Oeste 39 Oeste 0 -- -- 63
2017-11-18 09:00:00 9.3 24 Oeste 38 Oeste 0 -- -- 68
2017-11-18 08:00:00 8.8 23 Oeste 42 Oeste 0 -- -- 69
2017-11-18 07:00:00 8.9 23 Oeste 35 Oeste 0 -- -- 68
2017-11-18 06:00:00 8.9 22 Oeste 40 Oeste 0 -- -- 65
2017-11-18 05:00:00 9.5 22 Oeste 37 Oeste 0 -- -- 60
2017-11-18 04:00:00 10.4 20 Oeste 32 Oeste 0 -- -- 56
2017-11-18 03:00:00 11.1 18 Oeste 32 Oeste 0 -- -- 51
2017-11-18 02:00:00 11.9 19 Sudoeste 28 Sudoeste 0 -- -- 47
2017-11-18 01:00:00 11.7 14 Oeste 31 Sudoeste 0 -- -- 47
2017-11-18 00:00:00 12.3 18 Sudoeste 27 Oeste 0 -- -- 45
2017-11-17 23:00:00 11.6 17 Oeste 28 Oeste 0 -- -- 46
2017-11-17 22:00:00 11.3 6 Oeste 23 Sudoeste 0 -- -- 45
2017-11-17 21:00:00 12.4 15 Oeste 24 Oeste 0 -- -- 44
2017-11-17 20:00:00 12.8 16 Oeste 26 Sudoeste 0 -- -- 45
2017-11-17 19:00:00 13.1 14 Sudoeste 27 Sudoeste 0 -- -- 45
2017-11-17 18:00:00 12.9 10 Sudoeste 21 Sudoeste 0 -- -- 46
2017-11-17 17:00:00 14.7 9 Sudoeste 32 Oeste 0 -- -- 42
2017-11-17 16:00:00 16.4 18 Oeste 31 Sudoeste 0 -- -- 39
2017-11-17 15:00:00 17.2 19 Oeste 35 Oeste 0 -- -- 38
2017-11-17 14:00:00 16.9 17 Oeste 36 Oeste 0 -- -- 39
2017-11-17 13:00:00 16.2 22 Oeste 37 Oeste 0 -- -- 41
2017-11-17 12:00:00 16.2 13 Oeste 28 Sudoeste 0 -- -- 39
2017-11-17 11:00:00 15.4 12 Sudoeste 28 Sudoeste 0 -- -- 40
2017-11-17 10:00:00 13.4 17 Sudoeste 30 Sur 0 -- -- 41
2017-11-17 09:00:00 10.9 18 Sudoeste 31 Sudoeste 0 -- -- 44
2017-11-17 08:00:00 9.4 19 Oeste 36 Oeste 0 -- -- 46
2017-11-17 07:00:00 9.9 16 Sudoeste 27 Sudoeste 0 -- -- 40
2017-11-17 06:00:00 9.4 15 Sudoeste 25 Oeste 0 -- -- 44
2017-11-17 05:00:00 9.3 15 Sudoeste 24 Oeste 0 -- -- 46
2017-11-17 04:00:00 9.6 14 Sudoeste 22 Sudoeste 0 -- -- 46
2017-11-17 03:00:00 8.5 10 Sudoeste 17 Sudoeste 0 -- -- 51
2017-11-17 02:00:00 7.1 9 Oeste 15 Oeste 0 -- -- 56
2017-11-17 01:00:00 7.2 9 Oeste 18 Oeste 0 -- -- 54
2017-11-17 00:00:00 4.8 6 Oeste 12 Oeste 0 -- -- 64
2017-11-16 23:00:00 4.7 6 Oeste 9 Noroeste 0 -- -- 66
2017-11-16 22:00:00 7 4 Noroeste 11 Oeste 0 -- -- 60
2017-11-16 21:00:00 7.1 9 Oeste 14 Oeste 0 -- -- 58
2017-11-16 20:00:00 6.9 9 Oeste 15 Sudoeste 0 -- -- 60
2017-11-16 19:00:00 6.2 9 Oeste 12 Sudoeste 0 -- -- 64
2017-11-16 18:00:00 8.6 2 Oeste 7 Sudoeste 0 -- -- 67
2017-11-16 17:00:00 13.4 6 Sudoeste 12 Sudoeste 0 -- -- 42
2017-11-16 16:00:00 16 4 Sudeste 12 Sudeste 0 -- -- 39
2017-11-16 15:00:00 16.6 7 Sur 17 Sur 0 -- -- 35
2017-11-16 14:00:00 16.4 6 Sur 14 Este 0 -- -- 43
2017-11-16 13:00:00 15.9 8 Sudeste 16 Este 0 -- -- 44
2017-11-16 12:00:00 15.6 7 Este 13 Este 0 -- -- 44
2017-11-16 11:00:00 14.1 5 Este 10 Este 0 -- -- 47
2017-11-16 10:00:00 12.1 3 Sudeste 8 Sudeste 0 -- -- 51
2017-11-16 09:00:00 6.3 0 Calma 8 Oeste 0 -- -- 75
2017-11-16 08:00:00 3.5 3 Oeste 10 Oeste 0 -- -- 76
2017-11-16 07:00:00 3.7 5 Noroeste 15 Oeste 0 -- -- 74
2017-11-16 06:00:00 2.7 9 Oeste 13 Oeste 0 -- -- 80
2017-11-16 05:00:00 2.9 4 Oeste 12 Oeste 0 -- -- 80
2017-11-16 04:00:00 3.5 3 Oeste 10 Oeste 0 -- -- 80
2017-11-16 03:00:00 3.2 4 Oeste 8 Sudoeste 0 -- -- 79
2017-11-16 02:00:00 3.2 3 Oeste 9 Oeste 0 -- -- 81
2017-11-16 01:00:00 3.6 6 Oeste 12 Oeste 0 -- -- 81
2017-11-16 00:00:00 3.6 5 Oeste 9 Oeste 0 -- -- 81
2017-11-15 23:00:00 3.8 8 Oeste 12 Oeste 0 -- -- 81
2017-11-15 22:00:00 3.8 0 Calma 8 Oeste 0 -- -- 81
2017-11-15 21:00:00 4.5 4 Oeste 9 Oeste 0 -- -- 78
2017-11-15 20:00:00 4.5 0 Calma 9 Sudoeste 0 -- -- 78
2017-11-15 19:00:00 5.9 4 Sudoeste 12 Oeste 0 -- -- 71
2017-11-15 18:00:00 8.5 9 Oeste 16 Sudoeste 0 -- -- 59
2017-11-15 17:00:00 11.7 9 Oeste 26 Oeste 0 -- -- 49
2017-11-15 16:00:00 13.8 16 Oeste 24 Oeste 0 -- -- 43
2017-11-15 15:00:00 14.3 13 Oeste 29 Sudoeste 0 -- -- 42
2017-11-15 14:00:00 13 18 Oeste 31 Sudoeste 0 -- -- 43
2017-11-15 13:00:00 11.6 22 Sudoeste 39 Sudoeste 0 -- -- 46
2017-11-15 12:00:00 9.7 18 Sudoeste 32 Sudoeste 0 -- -- 52
2017-11-15 11:00:00 9.2 13 Oeste 37 Oeste 0 -- -- 53
2017-11-15 10:00:00 7.8 19 Oeste 33 Oeste 0 -- -- 56
2017-11-15 09:00:00 5.3 19 Oeste 35 Oeste 0 -- -- 64
2017-11-15 08:00:00 4.3 18 Oeste 48 Oeste 0 -- -- 67
2017-11-15 07:00:00 4.1 19 Oeste 48 Oeste 0 -- -- 67
2017-11-15 06:00:00 4.6 26 Oeste 48 Oeste 0 -- -- 64
2017-11-15 05:00:00 4.1 25 Oeste 55 Oeste 0 -- -- 66
2017-11-15 04:00:00 4.5 24 Oeste 47 Oeste 0 -- -- 64
2017-11-15 03:00:00 5.3 29 Oeste 49 Oeste 0 -- -- 61
2017-11-15 02:00:00 5.7 20 Oeste 38 Oeste 0 -- -- 58
2017-11-15 01:00:00 6.4 20 Oeste 39 Oeste 0 -- -- 54
2017-11-15 00:00:00 6.7 17 Oeste 33 Oeste 0 -- -- 54
2017-11-14 23:00:00 7.3 13 Oeste 23 Oeste 0 -- -- 51
2017-11-14 22:00:00 6.9 14 Oeste 21 Oeste 0 -- -- 53
2017-11-14 21:00:00 4.3 6 Oeste 14 Noroeste 0 -- -- 64
2017-11-14 20:00:00 5.1 11 Oeste 14 Oeste 0 -- -- 60
2017-11-14 19:00:00 3.9 7 Oeste 9 Oeste 0 -- -- 67
2017-11-14 18:00:00 6.3 4 Norte 10 Sudoeste 0 -- -- 59
2017-11-14 17:00:00 11 8 Sudoeste 25 Oeste 0 -- -- 43
2017-11-14 16:00:00 12.6 12 Oeste 31 Sudoeste 0 -- -- 38
2017-11-14 15:00:00 12.5 17 Oeste 41 Oeste 0 -- -- 39
2017-11-14 14:00:00 11.6 25 Oeste 45 Oeste 0 -- -- 40
2017-11-14 13:00:00 10.6 30 Oeste 47 Oeste 0 -- -- 43
2017-11-14 12:00:00 9.5 31 Oeste 51 Oeste 0 -- -- 47
2017-11-14 11:00:00 8.1 30 Oeste 49 Noroeste 0 -- -- 51
2017-11-14 10:00:00 6.4 31 Oeste 54 Oeste 0 -- -- 57
2017-11-14 09:00:00 4.7 31 Oeste 55 Oeste 0 -- -- 62
2017-11-14 08:00:00 3.8 32 Oeste 57 Oeste 0 -- -- 67
2017-11-14 07:00:00 3.6 30 Oeste 51 Oeste 0 -- -- 68
2017-11-14 06:00:00 3.7 31 Oeste 50 Oeste 0 -- -- 69
2017-11-14 05:00:00 3.8 30 Oeste 52 Oeste 0 -- -- 68
2017-11-14 04:00:00 4.2 24 Oeste 45 Oeste 0 -- -- 64
2017-11-14 03:00:00 4.4 28 Oeste 50 Oeste 0 -- -- 62
2017-11-14 02:00:00 4.5 26 Oeste 44 Oeste 0 -- -- 59
2017-11-14 01:00:00 4.7 30 Oeste 54 Oeste 0 -- -- 61
2017-11-14 00:00:00 5 29 Noroeste 51 Oeste 0 -- -- 58
2017-11-13 23:00:00 5.4 32 Oeste 57 Oeste 0 -- -- 56
2017-11-13 22:00:00 5.8 30 Oeste 51 Oeste 0 -- -- 54
2017-11-13 21:00:00 6.5 23 Oeste 48 Oeste 0 -- -- 51
2017-11-13 20:00:00 7.6 21 Oeste 45 Oeste 0 -- -- 46
2017-11-13 19:00:00 8.7 13 Noroeste 44 Oeste 0 -- -- 40
2017-11-13 18:00:00 10 16 Oeste 35 Sudoeste 0 -- -- 36
2017-11-13 17:00:00 11.9 13 Oeste 29 Oeste 0 -- -- 33
2017-11-13 16:00:00 13.9 11 Oeste 31 Oeste 0 -- -- 30
2017-11-13 15:00:00 14 19 Oeste 42 Oeste 0 -- -- 31
2017-11-13 14:00:00 13.6 24 Oeste 50 Oeste 0 -- -- 32
2017-11-13 13:00:00 13.5 27 Oeste 53 Oeste 0 -- -- 37
2017-11-13 12:00:00 12.5 29 Oeste 56 Oeste 0 -- -- 42
2017-11-13 11:00:00 11.6 25 Noroeste 49 Oeste 0 -- -- 47
2017-11-13 10:00:00 10.7 26 Oeste 40 Noroeste 0 -- -- 54
2017-11-13 09:00:00 9.2 23 Oeste 41 Oeste 0 -- -- 61
2017-11-13 08:00:00 8.3 19 Oeste 38 Oeste 0 -- -- 64
2017-11-13 07:00:00 8.8 20 Oeste 38 Oeste 0 -- -- 64
2017-11-13 06:00:00 9.5 20 Oeste 48 Oeste 0 -- -- 60
2017-11-13 05:00:00 10 23 Oeste 48 Oeste 0 -- -- 57
2017-11-13 04:00:00 10.9 23 Oeste 53 Oeste 0 -- -- 54
2017-11-13 03:00:00 12.2 19 Oeste 46 Sudoeste 0 -- -- 56
2017-11-13 02:00:00 12.7 19 Sudoeste 42 Oeste 0 -- -- 69
2017-11-13 01:00:00 12.9 14 Oeste 32 Oeste 0 -- -- 73
2017-11-13 00:00:00 12.9 17 Oeste 44 Oeste 0 -- -- 72
2017-11-12 23:00:00 13.1 22 Oeste 54 Oeste 0 -- -- 72
2017-11-12 22:00:00 13.4 32 Oeste 58 Noroeste 0 -- -- 71
2017-11-12 21:00:00 13.2 24 Oeste 54 Oeste 0 -- -- 69
2017-11-12 20:00:00 13.6 19 Oeste 47 Oeste 0 -- -- 66
2017-11-12 19:00:00 14.1 18 Oeste 41 Oeste 0 -- -- 63
2017-11-12 18:00:00 15.1 18 Noroeste 48 Noroeste 0 -- -- 60
2017-11-12 17:00:00 16.4 25 Oeste 55 Oeste 0 -- -- 57
2017-11-12 16:00:00 17.4 29 Oeste 56 Oeste 0 -- -- 55
2017-11-12 15:00:00 17.7 25 Oeste 53 Oeste 0 -- -- 53
2017-11-12 14:00:00 17.2 23 Oeste 58 Oeste 0 -- -- 56
2017-11-12 13:00:00 16.3 26 Oeste 49 Oeste 0 -- -- 56
2017-11-12 12:00:00 14.8 32 Oeste 59 Oeste 0 -- -- 61
2017-11-12 11:00:00 13.6 37 Oeste 63 Oeste 0 -- -- 64
2017-11-12 10:00:00 12.1 37 Oeste 57 Oeste 0 -- -- 69
2017-11-12 09:00:00 10.6 31 Oeste 54 Oeste 0 -- -- 74
2017-11-12 08:00:00 9.7 26 Oeste 53 Oeste 0 -- -- 77
2017-11-12 07:00:00 9.8 28 Oeste 49 Oeste 0 -- -- 77
2017-11-12 06:00:00 10 26 Oeste 55 Oeste 0 -- -- 77
2017-11-12 05:00:00 10.3 32 Oeste 59 Noroeste 0 -- -- 76
2017-11-12 04:00:00 10.4 37 Oeste 64 Oeste 0 -- -- 76
2017-11-12 03:00:00 10.4 30 Oeste 54 Oeste 0 -- -- 75
2017-11-12 02:00:00 10.5 29 Oeste 53 Oeste 0 -- -- 74
2017-11-12 01:00:00 10.9 33 Oeste 57 Noroeste 0 -- -- 73
2017-11-12 00:00:00 11.2 31 Oeste 56 Oeste 0 -- -- 74
2017-11-11 23:00:00 11.6 31 Oeste 53 Oeste 0 -- -- 73
2017-11-11 22:00:00 11.9 29 Oeste 51 Oeste 0 -- -- 71
2017-11-11 21:00:00 12.4 30 Oeste 51 Oeste 0 -- -- 71
2017-11-11 20:00:00 13.2 29 Oeste 55 Oeste 0 -- -- 70
2017-11-11 19:00:00 14.3 28 Oeste 46 Oeste 0 -- -- 67
2017-11-11 18:00:00 15.2 23 Oeste 49 Oeste 0 -- -- 64
2017-11-11 17:00:00 15.4 19 Oeste 36 Sudoeste 0 -- -- 64
2017-11-11 16:00:00 15.8 19 Oeste 41 Oeste 0 -- -- 64
2017-11-11 15:00:00 16.3 22 Oeste 42 Oeste 0 -- -- 63
2017-11-11 14:00:00 15.3 26 Oeste 44 Oeste 0 -- -- 66
2017-11-11 13:00:00 15.3 28 Oeste 48 Oeste 0 -- -- 64
2017-11-11 12:00:00 12.5 27 Noroeste 58 Noroeste 0 -- -- 75
2017-11-11 11:00:00 11.3 32 Oeste 54 Oeste 0 -- -- 79
2017-11-11 10:00:00 10.8 27 Oeste 48 Oeste 0 -- -- 80
2017-11-11 09:00:00 10.4 27 Oeste 44 Oeste 0 -- -- 80
2017-11-11 08:00:00 10.3 24 Oeste 47 Oeste 0 -- -- 78
2017-11-11 07:00:00 10.4 24 Oeste 41 Oeste 0 -- -- 76
2017-11-11 06:00:00 9.9 22 Oeste 52 Oeste 0 -- -- 79
2017-11-11 05:00:00 10.3 27 Oeste 49 Oeste 0 -- -- 79
2017-11-11 04:00:00 10.1 27 Oeste 49 Oeste 0 -- -- 82
2017-11-11 03:00:00 10.3 28 Oeste 54 Oeste 0 -- -- 82
2017-11-11 02:00:00 10.7 30 Oeste 48 Oeste 0 -- -- 77
2017-11-11 01:00:00 10.7 25 Noroeste 50 Noroeste 0 -- -- 76
2017-11-11 00:00:00 11 23 Oeste 39 Noroeste 0 -- -- 72
2017-11-10 23:00:00 11.2 19 Oeste 36 Oeste 0 -- -- 70
2017-11-10 22:00:00 11.8 21 Oeste 39 Oeste 0 -- -- 68
2017-11-10 21:00:00 12.2 21 Oeste 38 Oeste 0 -- -- 65
2017-11-10 20:00:00 12.6 22 Oeste 43 Oeste 0 -- -- 65
2017-11-10 19:00:00 12.5 21 Oeste 42 Oeste 0 -- -- 64
2017-11-10 18:00:00 13.2 19 Oeste 37 Sudoeste 0 -- -- 57
2017-11-10 17:00:00 12.6 16 Oeste 36 Oeste 0 -- -- 54
2017-11-10 16:00:00 12.6 19 Oeste 42 Oeste 0 -- -- 51
2017-11-10 15:00:00 13.3 22 Oeste 36 Oeste 0 -- -- 46
2017-11-10 14:00:00 13.9 24 Oeste 45 Oeste 0 -- -- 48
2017-11-10 13:00:00 13.3 28 Oeste 48 Oeste 0 -- -- 49
2017-11-10 12:00:00 11.9 27 Oeste 54 Oeste 0 -- -- 56
2017-11-10 11:00:00 9.7 29 Oeste 45 Noroeste 0 -- -- 63
2017-11-10 10:00:00 7.9 28 Oeste 48 Oeste 0 -- -- 71
2017-11-10 09:00:00 6.2 25 Noroeste 50 Noroeste 0 -- -- 78
2017-11-10 08:00:00 5 26 Noroeste 48 Noroeste 0 -- -- 83
2017-11-10 07:00:00 5 27 Noroeste 48 Oeste 0 -- -- 84
2017-11-10 06:00:00 5.1 27 Noroeste 44 Noroeste 0 -- -- 85
2017-11-10 05:00:00 5.2 25 Oeste 50 Oeste 0 -- -- 84
2017-11-10 04:00:00 5.4 26 Noroeste 45 Noroeste 0 -- -- 84
2017-11-10 03:00:00 5.6 24 Oeste 47 Oeste 0 -- -- 84
2017-11-10 02:00:00 5.9 27 Oeste 48 Oeste 0 -- -- 85
2017-11-10 01:00:00 6.3 26 Oeste 48 Oeste 0 -- -- 82
2017-11-10 00:00:00 6.5 25 Oeste 48 Oeste 0 -- -- 81
2017-11-09 23:00:00 7 24 Oeste 41 Oeste 0 -- -- 78
2017-11-09 22:00:00 7.5 21 Oeste 37 Oeste 0 -- -- 74
2017-11-09 21:00:00 7.9 19 Oeste 35 Oeste 0 -- -- 73
2017-11-09 20:00:00 8.9 19 Oeste 35 Oeste 0 -- -- 69
2017-11-09 19:00:00 10.5 15 Oeste 45 Oeste 0 -- -- 60
2017-11-09 18:00:00 11.6 14 Oeste 35 Oeste 0 -- -- 56
2017-11-09 17:00:00 13 19 Oeste 39 Oeste 0 -- -- 52
2017-11-09 16:00:00 14 19 Oeste 39 Oeste 0 -- -- 48
2017-11-09 15:00:00 13.5 21 Oeste 44 Oeste 0 -- -- 51
2017-11-09 14:00:00 12.1 24 Oeste 50 Oeste 0 -- -- 57
2017-11-09 13:00:00 11.5 26 Oeste 48 Oeste 0 -- -- 59
2017-11-09 12:00:00 10.5 24 Oeste 42 Oeste 0 -- -- 64
2017-11-09 11:00:00 9 23 Oeste 48 Oeste 0 -- -- 69
2017-11-09 10:00:00 8.1 27 Oeste 46 Oeste 0 -- -- 71
2017-11-09 09:00:00 6.3 25 Oeste 50 Oeste 0 -- -- 78
2017-11-09 08:00:00 4.9 32 Oeste 55 Oeste 0 -- -- 82
2017-11-09 07:00:00 4.5 27 Oeste 49 Oeste 0 -- -- 84
2017-11-09 06:00:00 4.2 29 Oeste 48 Oeste 0 -- -- 84
2017-11-09 05:00:00 3.9 27 Oeste 48 Oeste 0 -- -- 85
2017-11-09 04:00:00 3.9 24 Oeste 44 Oeste 0 -- -- 84
2017-11-09 03:00:00 4.1 18 Oeste 38 Oeste 0 -- -- 83
2017-11-09 02:00:00 4.4 17 Noroeste 35 Noroeste 0 -- -- 81
2017-11-09 01:00:00 5 18 Noroeste 42 Oeste 0 -- -- 78
2017-11-09 00:00:00 5.4 25 Oeste 46 Oeste 0 -- -- 79
2017-11-08 23:00:00 5.9 27 Oeste 50 Oeste 0 -- -- 78
2017-11-08 22:00:00 6.8 22 Oeste 50 Oeste 0 -- -- 72
2017-11-08 21:00:00 7.9 25 Oeste 42 Oeste 0 -- -- 68
2017-11-08 20:00:00 8.5 26 Oeste 50 Oeste 0 -- -- 66
2017-11-08 19:00:00 9.2 26 Oeste 47 Oeste 0 -- -- 64
2017-11-08 18:00:00 9.7 14 Oeste 33 Noroeste 0 -- -- 62
2017-11-08 17:00:00 10.4 14 Oeste 35 Noroeste 0 -- -- 58
2017-11-08 16:00:00 10.9 16 Oeste 40 Noroeste 0 -- -- 56
2017-11-08 15:00:00 11.6 21 Oeste 39 Oeste 0 -- -- 56
2017-11-08 14:00:00 11.6 19 Oeste 34 Oeste 0 -- -- 61
2017-11-08 13:00:00 11.1 19 Oeste 42 Oeste 0 -- -- 64
2017-11-08 12:00:00 10.1 27 Oeste 45 Oeste 0 -- -- 64
2017-11-08 11:00:00 8.9 25 Oeste 47 Noroeste 0 -- -- 68
2017-11-08 10:00:00 8.4 24 Oeste 44 Oeste 0 -- -- 71
2017-11-08 09:00:00 9.7 23 Oeste 52 Oeste 0 -- -- 65
2017-11-08 08:00:00 8.3 24 Oeste 45 Oeste 0 -- -- 69
2017-11-08 07:00:00 8.3 20 Oeste 44 Oeste 0 -- -- 71
2017-11-08 06:00:00 8.4 22 Oeste 38 Oeste 0 -- -- 73
2017-11-08 05:00:00 8.5 19 Oeste 37 Oeste 0 -- -- 70
2017-11-08 04:00:00 8.2 17 Oeste 31 Oeste 0 -- -- 66
2017-11-08 03:00:00 7.2 15 Oeste 27 Oeste 0 -- -- 61
2017-11-08 02:00:00 6.9 8 Noroeste 18 Noroeste 0 -- -- 59
2017-11-08 01:00:00 6.8 5 Noroeste 24 Noroeste 0 -- -- 55
2017-11-08 00:00:00 8.1 10 Noroeste 28 Oeste 0 -- -- 46
2017-11-07 23:00:00 6.6 3 Oeste 26 Oeste 0 -- -- 46
2017-11-07 22:00:00 9.2 13 Noroeste 29 Noroeste 0 -- -- 35
2017-11-07 21:00:00 9.2 12 Oeste 24 Noroeste 0 -- -- 37
2017-11-07 20:00:00 9.5 12 Noroeste 28 Oeste 0 -- -- 39
2017-11-07 19:00:00 8.2 11 Oeste 27 Oeste 0 -- -- 46
2017-11-07 18:00:00 9.5 9 Oeste 34 Oeste 0 -- -- 42
2017-11-07 17:00:00 11.7 17 Oeste 39 Oeste 0 -- -- 37
2017-11-07 16:00:00 12.6 14 Oeste 36 Oeste 0 -- -- 37
2017-11-07 15:00:00 12.1 20 Oeste 46 Oeste 0 -- -- 38
2017-11-07 14:00:00 11.2 23 Oeste 52 Oeste 0 -- -- 40
2017-11-07 13:00:00 10.2 30 Oeste 57 Oeste 0 -- -- 42
2017-11-07 12:00:00 9.2 34 Oeste 55 Oeste 0 -- -- 45
2017-11-07 11:00:00 7.7 37 Oeste 58 Oeste 0 -- -- 50
2017-11-07 10:00:00 6.1 29 Oeste 63 Oeste 0 -- -- 57
2017-11-07 09:00:00 4.7 34 Oeste 59 Oeste 0 -- -- 62
2017-11-07 08:00:00 3.6 33 Oeste 53 Noroeste 0 -- -- 69
2017-11-07 07:00:00 3.5 29 Oeste 51 Oeste 0 -- -- 73
2017-11-07 06:00:00 3.9 29 Oeste 51 Oeste 0 -- -- 73
2017-11-07 05:00:00 4.1 27 Oeste 47 Oeste 0 -- -- 73
2017-11-07 04:00:00 4.3 28 Noroeste 48 Noroeste 0 -- -- 71
2017-11-07 03:00:00 5 30 Oeste 49 Noroeste 0 -- -- 65
2017-11-07 02:00:00 5.4 27 Noroeste 49 Noroeste 0 -- -- 60
2017-11-07 01:00:00 5.9 26 Noroeste 45 Noroeste 0 -- -- 58
2017-11-07 00:00:00 6.4 23 Noroeste 45 Noroeste 0 -- -- 54
2017-11-06 23:00:00 7.4 21 Noroeste 43 Oeste 0 -- -- 48
2017-11-06 22:00:00 7.6 19 Oeste 41 Oeste 0 -- -- 51
2017-11-06 21:00:00 8.4 22 Oeste 42 Oeste 0 -- -- 49
2017-11-06 20:00:00 8.7 12 Oeste 34 Sudoeste 0 -- -- 50
2017-11-06 19:00:00 9.7 12 Oeste 31 Oeste 0 -- -- 50
2017-11-06 18:00:00 11 16 Oeste 32 Oeste 0 -- -- 43
2017-11-06 17:00:00 12.5 15 Oeste 40 Oeste 0 -- -- 41
2017-11-06 16:00:00 13.4 14 Oeste 36 Oeste 0 -- -- 38
2017-11-06 15:00:00 13.7 16 Sudoeste 42 Oeste 0 -- -- 37
2017-11-06 14:00:00 13.9 18 Oeste 51 Oeste 0 -- -- 41
2017-11-06 13:00:00 13.4 17 Oeste 46 Oeste 0 -- -- 47
2017-11-06 12:00:00 12.4 20 Oeste 39 Oeste 0 -- -- 52
2017-11-06 11:00:00 11.1 15 Sudoeste 39 Sudoeste 0 -- -- 57
2017-11-06 10:00:00 8.8 19 Sudoeste 40 Sudoeste 0 -- -- 66
2017-11-06 09:00:00 7.4 17 Sudoeste 30 Sudoeste 0 -- -- 71
2017-11-06 08:00:00 6.2 17 Oeste 32 Sudoeste 0 -- -- 75
2017-11-06 07:00:00 6.5 14 Sudoeste 32 Oeste 0 -- -- 73
2017-11-06 06:00:00 6.5 14 Oeste 31 Sudoeste 0 -- -- 75
2017-11-06 05:00:00 7 12 Oeste 36 Oeste 0 -- -- 74
2017-11-06 04:00:00 7.3 17 Oeste 34 Sudoeste 0 -- -- 73
2017-11-06 03:00:00 7.5 15 Sudoeste 32 Sudoeste 0 -- -- 77
2017-11-06 02:00:00 8 14 Sudoeste 26 Sur 0 -- -- 77
2017-11-06 01:00:00 8.7 15 Oeste 33 Oeste 0 -- -- 73
2017-11-06 00:00:00 9 19 Oeste 41 Oeste 0 -- -- 72
2017-11-05 23:00:00 9.3 21 Oeste 46 Sudoeste 0 -- -- 71
2017-11-05 22:00:00 9.7 22 Oeste 46 Oeste 0 -- -- 69
2017-11-05 21:00:00 9.8 16 Oeste 35 Sudoeste 0 -- -- 67
2017-11-05 20:00:00 10.6 17 Sudoeste 49 Oeste 0 -- -- 65
2017-11-05 19:00:00 11.4 18 Oeste 41 Oeste 0 -- -- 61
2017-11-05 18:00:00 12.1 20 Oeste 53 Oeste 0 -- -- 59
2017-11-05 17:00:00 13.6 28 Oeste 60 Oeste 0 -- -- 55
2017-11-05 16:00:00 14.4 20 Oeste 60 Oeste 0 -- -- 56
2017-11-05 15:00:00 15.2 27 Oeste 58 Oeste 0 -- -- 54
2017-11-05 14:00:00 15 31 Oeste 61 Oeste 0 -- -- 55
2017-11-05 13:00:00 14.9 32 Oeste 66 Oeste 0 -- -- 58
2017-11-05 12:00:00 14.2 33 Oeste 60 Oeste 0 -- -- 64
2017-11-05 11:00:00 13.3 33 Oeste 63 Oeste 0 -- -- 68
2017-11-05 10:00:00 11.8 31 Oeste 57 Oeste 0 -- -- 74
2017-11-05 09:00:00 11.2 33 Oeste 56 Oeste 0 -- -- 78
2017-11-05 08:00:00 11 27 Oeste 51 Oeste 0 -- -- 84
2017-11-05 07:00:00 11.3 27 Oeste 48 Oeste 0 -- -- 87
2017-11-05 06:00:00 11.6 32 Oeste 55 Oeste 0 -- -- 85
2017-11-05 05:00:00 11.6 28 Oeste 55 Oeste 0 -- -- 86
2017-11-05 04:00:00 11.4 25 Oeste 52 Noroeste 0.2 -- -- 88
2017-11-05 03:00:00 11.8 26 Oeste 43 Oeste 0 -- -- 89
2017-11-05 02:00:00 12.3 17 Oeste 41 Oeste 0 -- -- 90
2017-11-05 01:00:00 12.5 13 Oeste 30 Oeste 0 -- -- 91
2017-11-05 00:00:00 12.4 17 Oeste 32 Oeste 0 -- -- 92
2017-11-04 23:00:00 12.7 14 Oeste 26 Oeste 0 -- -- 92
2017-11-04 22:00:00 11.8 15 Oeste 26 Noroeste 2.6 -- -- 94
2017-11-04 21:00:00 12 13 Oeste 33 Oeste 10 -- -- 94
2017-11-04 20:00:00 12.9 10 Oeste 20 Oeste 3 -- -- 97
2017-11-04 19:00:00 13 5 Sudoeste 10 Este 2.6 -- -- 96
2017-11-04 18:00:00 13.2 6 Noroeste 12 Noroeste 0.4 -- -- 95
2017-11-04 17:00:00 13.1 7 Oeste 11 Oeste 1.6 -- -- 95
2017-11-04 16:00:00 13.8 3 Norte 9 Norte 9.8 -- -- 92
2017-11-04 15:00:00 15.9 3 Sur 33 Oeste 0 -- -- 74
2017-11-04 14:00:00 17.7 5 Este 13 Este 0 -- -- 89
2017-11-04 13:00:00 17.4 3 Este 22 Este 0.8 -- -- 89
2017-11-04 12:00:00 16.7 3 Nordeste 15 Sudeste 0.2 -- -- 92
2017-11-04 11:00:00 17.2 6 Este 14 Sudeste 0 -- -- 91
2017-11-04 10:00:00 16.2 3 Sur 7 Sudoeste 0 -- -- 99
2017-11-04 09:00:00 15.5 0 Calma 9 Sudeste 0 -- -- 98
2017-11-04 08:00:00 15.2 3 Nordeste 7 Sur 0.4 -- -- 97
2017-11-04 07:00:00 15 5 Norte 8 Noroeste 0 -- -- 96
2017-11-04 06:00:00 14.9 2 Sudeste 8 Nordeste 0 -- -- 95
2017-11-04 05:00:00 14.5 3 Noroeste 7 Sudoeste 0 -- -- 95
2017-11-04 04:00:00 14.5 4 Noroeste 5 Noroeste 0 -- -- 96
2017-11-04 03:00:00 14.4 2 Oeste 7 Oeste 0 -- -- 97
2017-11-04 02:00:00 14.1 0 Calma 4 Sudoeste 0 -- -- 97
2017-11-04 01:00:00 13.7 4 Noroeste 9 Sudoeste 0 -- -- 98
2017-11-04 00:00:00 13.3 4 Noroeste 11 Sudoeste 0 -- -- 98
2017-11-03 23:00:00 12.5 0 Calma 9 Oeste 0 -- -- 96
2017-11-03 22:00:00 12.5 4 Oeste 10 Sudoeste 0 -- -- 94
2017-11-03 21:00:00 13.8 6 Noroeste 10 Oeste 0 -- -- 94
2017-11-03 20:00:00 14.9 0 Calma 7 Norte 0 -- -- 91
2017-11-03 19:00:00 15.8 4 Nordeste 9 Sudeste 0 -- -- 90
2017-11-03 18:00:00 16.4 4 Este 14 Sudeste 0 -- -- 87
2017-11-03 17:00:00 17 9 Sudeste 19 Sudeste 0 -- -- 82
2017-11-03 16:00:00 18.7 9 Sudeste 22 Sudeste 0 -- -- 77
2017-11-03 15:00:00 19.5 10 Sudeste 16 Sudeste 0 -- -- 73
2017-11-03 14:00:00 19.5 6 Este 15 Sudeste 0 -- -- 74
2017-11-03 13:00:00 20 8 Sudeste 16 Este 0 -- -- 72
2017-11-03 12:00:00 18.2 8 Sudeste 15 Este 0 -- -- 78
2017-11-03 11:00:00 16.8 4 Sudeste 11 Nordeste 0 -- -- 83
2017-11-03 10:00:00 15.9 3 Norte 8 Sur 0 -- -- 89
2017-11-03 09:00:00 14.2 5 Oeste 9 Oeste 0 -- -- 97
2017-11-03 08:00:00 13.6 5 Oeste 7 Sudoeste 0 -- -- 98
2017-11-03 07:00:00 12.5 0 Calma 7 Oeste 0 -- -- 97
2017-11-03 06:00:00 12.9 2 Sudoeste 7 Oeste 0 -- -- 94
2017-11-03 05:00:00 13.2 3 Oeste 8 Oeste 0 -- -- 94
2017-11-03 04:00:00 13.6 5 Sudoeste 12 Oeste 0 -- -- 95
2017-11-03 03:00:00 13.4 6 Oeste 12 Oeste 0 -- -- 97
2017-11-03 02:00:00 12.9 7 Oeste 13 Oeste 0 -- -- 98
2017-11-03 01:00:00 12.4 4 Oeste 10 Oeste 0 -- -- 98
2017-11-03 00:00:00 11.4 3 Oeste 10 Sudoeste 0 -- -- 97
2017-11-02 23:00:00 11.5 3 Oeste 10 Oeste 0 -- -- 95
2017-11-02 22:00:00 12.3 7 Oeste 11 Oeste 0 -- -- 95
2017-11-02 21:00:00 13.3 4 Oeste 12 Sudoeste 0 -- -- 93
2017-11-02 20:00:00 14.8 0 Calma 9 Nordeste 0 -- -- 91
2017-11-02 19:00:00 15.5 3 Nordeste 9 Norte 0 -- -- 91
2017-11-02 18:00:00 16.1 4 Nordeste 12 Nordeste 0 -- -- 87
2017-11-02 17:00:00 17.5 6 Este 14 Sudeste 0 -- -- 83
2017-11-02 16:00:00 18.1 6 Este 14 Sudeste 0 -- -- 82
2017-11-02 15:00:00 18.7 4 Sudeste 13 Este 0 -- -- 77
2017-11-02 14:00:00 18.9 6 Sudeste 15 Sudeste 0 -- -- 77
2017-11-02 13:00:00 18.8 6 Sudeste 15 Este 0 -- -- 77
2017-11-02 12:00:00 18.1 7 Este 15 Este 0 -- -- 80
2017-11-02 11:00:00 17.2 3 Este 9 Este 0 -- -- 82
2017-11-02 10:00:00 15.8 2 Norte 7 Sudoeste 0 -- -- 89
2017-11-02 09:00:00 14.1 2 Oeste 9 Oeste 0 -- -- 99
2017-11-02 08:00:00 11.3 7 Oeste 11 Oeste 0 -- -- 98
2017-11-02 07:00:00 11.2 6 Oeste 12 Oeste 0 -- -- 96
2017-11-02 06:00:00 12 6 Oeste 11 Oeste 0 -- -- 94
2017-11-02 05:00:00 13.3 6 Oeste 10 Oeste 0 -- -- 96
2017-11-02 04:00:00 12.5 4 Oeste 9 Sudoeste 0 -- -- 97
2017-11-02 03:00:00 12.2 6 Oeste 8 Oeste 0 -- -- 95
2017-11-02 02:00:00 12.9 6 Oeste 12 Oeste 0 -- -- 95
2017-11-02 01:00:00 12.2 5 Oeste 8 Oeste 0 -- -- 95
2017-11-02 00:00:00 12.7 5 Oeste 9 Oeste 0 -- -- 92
2017-11-01 23:00:00 14.3 5 Norte 9 Nordeste 0 -- -- 94
2017-11-01 22:00:00 14.2 4 Sudoeste 8 Sudoeste 0 -- -- 94
2017-11-01 21:00:00 13.9 4 Norte 9 Sur 0 -- -- 93
2017-11-01 20:00:00 14.8 3 Nordeste 8 Este 0 -- -- 91
2017-11-01 19:00:00 15.4 2 Nordeste 6 Nordeste 0 -- -- 87
2017-11-01 18:00:00 15.7 3 Este 12 Este 0 -- -- 84
2017-11-01 17:00:00 16.3 5 Sudeste 15 Sur 0 -- -- 82
2017-11-01 16:00:00 17.1 6 Este 16 Este 0 -- -- 78
2017-11-01 15:00:00 17.4 6 Sudeste 19 Sudeste 0 -- -- 76
2017-11-01 14:00:00 17.8 5 Este 14 Este 0 -- -- 75
2017-11-01 13:00:00 17.9 6 Este 13 Sudeste 0 -- -- 74
2017-11-01 12:00:00 16.3 5 Sudeste 13 Este 0 -- -- 81
2017-11-01 11:00:00 15.5 4 Este 9 Este 0 -- -- 85
2017-11-01 10:00:00 14.9 2 Este 5 Este 0 -- -- 87
2017-11-01 09:00:00 13.8 0 Calma 2 Nordeste 0 -- -- 93
2017-11-01 08:00:00 13.2 0 Calma 3 Noroeste 0 -- -- 93
2017-11-01 07:00:00 13 3 Noroeste 5 Noroeste 0 -- -- 93
2017-11-01 06:00:00 13.1 2 Sudoeste 6 Noroeste 0 -- -- 91
2017-11-01 05:00:00 13.1 3 Oeste 6 Sudoeste 0 -- -- 91
2017-11-01 04:00:00 12.9 4 Oeste 5 Oeste 0 -- -- 91
2017-11-01 03:00:00 12.7 2 Norte 5 Oeste 0 -- -- 92
2017-11-01 02:00:00 12.9 3 Oeste 5 Oeste 0 -- -- 91
2017-11-01 01:00:00 12.6 0 Calma 7 Oeste 0 -- -- 92
2017-11-01 00:00:00 12.2 3 Sudoeste 6 Sudoeste 0 -- -- 90
2017-10-31 23:00:00 12.8 4 Noroeste 7 Sur 0 -- -- 89
2017-10-31 22:00:00 13.2 4 Noroeste 9 Noroeste 0 -- -- 87
2017-10-31 21:00:00 13.3 5 Norte 8 Norte 0 -- -- 85
2017-10-31 20:00:00 13.5 0 Calma 5 Nordeste 0 -- -- 86
2017-10-31 19:00:00 13.3 3 Este 9 Sudeste 0 -- -- 86
2017-10-31 18:00:00 13.7 0 Calma 8 Este 0 -- -- 83
2017-10-31 17:00:00 15.2 3 Este 13 Este 0 -- -- 77
2017-10-31 16:00:00 17.1 8 Sudeste 15 Este 0 -- -- 68
2017-10-31 15:00:00 17.7 7 Este 20 Este 0 -- -- 58
2017-10-31 14:00:00 17.3 7 Este 20 Este 0 -- -- 56
2017-10-31 13:00:00 18.2 6 Sudoeste 19 Sur 0 -- -- 52
2017-10-31 12:00:00 15.7 10 Sudoeste 24 Sudoeste 0 -- -- 57
2017-10-31 11:00:00 15.1 14 Sudoeste 25 Sudoeste 0 -- -- 56
2017-10-31 10:00:00 12.8 14 Oeste 31 Oeste 0 -- -- 62
2017-10-31 09:00:00 8.9 19 Oeste 36 Oeste 0 -- -- 73
2017-10-31 08:00:00 8.4 22 Oeste 35 Oeste 0 -- -- 74
2017-10-31 07:00:00 8.7 20 Oeste 35 Sudoeste 0 -- -- 73
2017-10-31 06:00:00 9.1 23 Oeste 37 Oeste 0 -- -- 72
2017-10-31 05:00:00 9.3 21 Oeste 38 Oeste 0 -- -- 72
2017-10-31 04:00:00 9.9 18 Oeste 36 Oeste 0 -- -- 70
2017-10-31 03:00:00 10.3 20 Oeste 35 Oeste 0 -- -- 71
2017-10-31 02:00:00 10.5 19 Oeste 35 Oeste 0 -- -- 72
2017-10-31 01:00:00 11.2 19 Oeste 30 Oeste 0 -- -- 74
2017-10-31 00:00:00 12.1 16 Oeste 28 Oeste 0 -- -- 71
2017-10-30 23:00:00 13.5 14 Noroeste 24 Noroeste 0 -- -- 67
2017-10-30 22:00:00 13 6 Oeste 11 Sudoeste 0 -- -- 86
2017-10-30 21:00:00 13.1 4 Oeste 7 Sudoeste 0 -- -- 86
2017-10-30 20:00:00 13.8 0 Calma 3 Sudoeste 0 -- -- 84
2017-10-30 19:00:00 14.3 4 Oeste 6 Oeste 0 -- -- 81
2017-10-30 18:00:00 15.8 3 Este 21 Nordeste 0 -- -- 75
2017-10-30 17:00:00 18.7 10 Oeste 21 Oeste 0 -- -- 55
2017-10-30 16:00:00 19.7 14 Oeste 25 Sudoeste 0 -- -- 52
2017-10-30 15:00:00 19.6 16 Oeste 28 Oeste 0 -- -- 51
2017-10-30 14:00:00 18.9 16 Oeste 35 Oeste 0 -- -- 55
2017-10-30 13:00:00 18.1 20 Oeste 35 Oeste 0 -- -- 59
2017-10-30 12:00:00 17.4 18 Oeste 36 Oeste 0 -- -- 62
2017-10-30 11:00:00 15.6 19 Oeste 46 Oeste 0 -- -- 67
2017-10-30 10:00:00 14.3 24 Oeste 44 Oeste 0 -- -- 73
2017-10-30 09:00:00 13.2 24 Oeste 49 Oeste 0 -- -- 77
2017-10-30 08:00:00 11.9 28 Oeste 51 Oeste 0 -- -- 83
2017-10-30 07:00:00 11.7 23 Oeste 51 Oeste 0 -- -- 83
2017-10-30 06:00:00 11.9 31 Oeste 49 Oeste 0 -- -- 83
2017-10-30 05:00:00 11.7 23 Oeste 47 Oeste 0 -- -- 83
2017-10-30 04:00:00 11.8 26 Oeste 48 Oeste 0 -- -- 82
2017-10-30 03:00:00 11.8 29 Oeste 49 Oeste 0 -- -- 81
2017-10-30 02:00:00 11.8 28 Oeste 53 Oeste 0 -- -- 80
2017-10-30 01:00:00 12 31 Oeste 59 Noroeste 0 -- -- 78
2017-10-30 00:00:00 12 27 Oeste 52 Oeste 0 -- -- 75
2017-10-29 23:00:00 12.5 29 Oeste 58 Oeste 0 -- -- 72
2017-10-29 22:00:00 13.6 31 Oeste 61 Noroeste 0 -- -- 66
2017-10-29 21:00:00 14.9 31 Oeste 49 Oeste 0 -- -- 57
2017-10-29 20:00:00 15.9 26 Oeste 45 Oeste 0 -- -- 52
2017-10-29 19:00:00 16 24 Oeste 39 Oeste 0 -- -- 52
2017-10-29 18:00:00 16.6 24 Oeste 43 Oeste 0 -- -- 48
2017-10-29 17:00:00 18 23 Oeste 46 Oeste 0 -- -- 43
2017-10-29 16:00:00 18.6 27 Oeste 41 Oeste 0 -- -- 44
2017-10-29 15:00:00 19 23 Oeste 42 Oeste 0 -- -- 44
2017-10-29 14:00:00 18.4 27 Oeste 47 Oeste 0 -- -- 45
2017-10-29 13:00:00 17.6 24 Oeste 46 Sudoeste 0 -- -- 50
2017-10-29 12:00:00 16.6 20 Oeste 44 Oeste 0 -- -- 53
2017-10-29 11:00:00 14.7 27 Oeste 49 Oeste 0 -- -- 57
2017-10-29 10:00:00 12.7 32 Oeste 48 Sudoeste 0 -- -- 63
2017-10-29 09:00:00 11.3 23 Oeste 42 Oeste 0 -- -- 68
2017-10-29 08:00:00 9.9 23 Oeste 42 Oeste 0 -- -- 73
2017-10-29 07:00:00 9.8 22 Oeste 48 Oeste 0 -- -- 74
2017-10-29 06:00:00 10.1 23 Oeste 51 Oeste 0 -- -- 74
2017-10-29 05:00:00 10.4 22 Oeste 40 Oeste 0 -- -- 73
2017-10-29 04:00:00 10.8 22 Oeste 53 Oeste 0 -- -- 72
2017-10-29 03:00:00 11.3 27 Oeste 45 Oeste 0 -- -- 72
2017-10-29 02:00:00 11.7 30 Oeste 49 Oeste 0 -- -- 73
2017-10-29 01:00:00 12.9 30 Oeste 54 Oeste 0 -- -- 70
2017-10-29 00:00:00 13.6 31 Oeste 51 Oeste 0 -- -- 68
2017-10-28 23:00:00 14.6 27 Oeste 44 Oeste 0 -- -- 67
2017-10-28 22:00:00 15.6 15 Oeste 32 Oeste 0 -- -- 64
2017-10-28 21:00:00 15.9 13 Oeste 25 Oeste 0 -- -- 64
2017-10-28 20:00:00 15.6 13 Oeste 21 Oeste 0 -- -- 66
2017-10-28 19:00:00 17.1 8 Oeste 19 Oeste 0 -- -- 60
2017-10-28 18:00:00 19.7 9 Oeste 22 Oeste 0 -- -- 53
2017-10-28 17:00:00 21.1 12 Oeste 29 Oeste 0 -- -- 50
2017-10-28 16:00:00 20.9 17 Oeste 28 Oeste 0 -- -- 51
2017-10-28 15:00:00 20.3 19 Oeste 39 Oeste 0 -- -- 53
2017-10-28 14:00:00 19.3 23 Oeste 39 Oeste 0 -- -- 56
2017-10-28 13:00:00 18.6 22 Oeste 37 Oeste 0 -- -- 60
2017-10-28 12:00:00 16.9 22 Oeste 37 Oeste 0 -- -- 67
2017-10-28 11:00:00 14.9 21 Oeste 37 Oeste 0 -- -- 74
2017-10-28 10:00:00 14 22 Oeste 35 Oeste 0 -- -- 77
2017-10-28 09:00:00 12.6 19 Oeste 37 Oeste 0 -- -- 82
2017-10-28 08:00:00 12.7 20 Oeste 42 Oeste 0 -- -- 80
2017-10-28 07:00:00 13.2 25 Oeste 43 Noroeste 0 -- -- 80
2017-10-28 06:00:00 13.7 27 Noroeste 48 Oeste 0 -- -- 78
2017-10-28 05:00:00 13.9 25 Oeste 45 Oeste 0 -- -- 77
2017-10-28 04:00:00 14.1 25 Oeste 42 Oeste 0 -- -- 77
2017-10-28 03:00:00 14.5 26 Oeste 49 Oeste 0 -- -- 75
2017-10-28 02:00:00 14.7 25 Oeste 47 Oeste 0 -- -- 73
2017-10-28 01:00:00 15.2 24 Oeste 43 Oeste 0 -- -- 72
2017-10-28 00:00:00 15.5 21 Oeste 40 Oeste 0 -- -- 71
2017-10-27 23:00:00 16 21 Oeste 41 Oeste 0 -- -- 70
2017-10-27 22:00:00 16.7 14 Oeste 28 Oeste 0 -- -- 67
2017-10-27 21:00:00 17.7 15 Oeste 28 Oeste 0 -- -- 64
2017-10-27 20:00:00 18.8 12 Oeste 38 Oeste 0 -- -- 62
2017-10-27 19:00:00 19.8 19 Oeste 37 Oeste 0 -- -- 59
2017-10-27 18:00:00 21.4 17 Oeste 41 Oeste 0 -- -- 55
2017-10-27 17:00:00 22.6 24 Oeste 51 Oeste 0 -- -- 51
2017-10-27 16:00:00 23.5 27 Oeste 52 Oeste 0 -- -- 48
2017-10-27 15:00:00 23.3 25 Oeste 53 Oeste 0 -- -- 45
2017-10-27 14:00:00 22 31 Oeste 58 Oeste 0 -- -- 47
2017-10-27 13:00:00 20.8 28 Oeste 49 Oeste 0 -- -- 49
2017-10-27 12:00:00 19.7 23 Noroeste 51 Oeste 0 -- -- 51
2017-10-27 11:00:00 18.3 27 Oeste 58 Oeste 0 -- -- 54
2017-10-27 10:00:00 17.4 31 Noroeste 52 Oeste 0 -- -- 57
2017-10-27 09:00:00 17.1 25 Noroeste 50 Noroeste 0 -- -- 59
2017-10-27 08:00:00 17.2 25 Oeste 43 Oeste 0 -- -- 58
2017-10-27 07:00:00 15.6 17 Oeste 31 Oeste 0 -- -- 65
2017-10-27 06:00:00 16.6 17 Oeste 30 Oeste 0 -- -- 64
2017-10-27 05:00:00 18.1 13 Noroeste 25 Oeste 0 -- -- 60
2017-10-27 04:00:00 18.8 14 Oeste 23 Oeste 0 -- -- 56
2017-10-27 03:00:00 15.8 11 Oeste 18 Noroeste 0 -- -- 66
2017-10-27 02:00:00 12.9 0 Calma 13 Oeste 0 -- -- 86
2017-10-27 01:00:00 13.7 8 Sudoeste 14 Sudoeste 0 -- -- 91
2017-10-27 00:00:00 12 2 Oeste 6 Oeste 0 -- -- 96
2017-10-26 23:00:00 12.6 0 Calma 5 Sudoeste 0 -- -- 94
2017-10-26 22:00:00 13.1 0 Calma 9 Oeste 0 -- -- 93
2017-10-26 21:00:00 13.9 3 Noroeste 4 Noroeste 0 -- -- 92
2017-10-26 20:00:00 15.4 0 Calma 4 Sudoeste 0 -- -- 87
2017-10-26 19:00:00 18.8 2 Nordeste 8 Nordeste 0 -- -- 82
2017-10-26 18:00:00 21.5 5 Este 14 Este 0 -- -- 74
2017-10-26 17:00:00 22.8 7 Este 15 Este 0 -- -- 70
2017-10-26 16:00:00 24.1 8 Este 16 Este 0 -- -- 67
2017-10-26 15:00:00 24.1 7 Este 17 Este 0 -- -- 66
2017-10-26 14:00:00 24 8 Este 14 Sudeste 0 -- -- 64
2017-10-26 13:00:00 22.7 5 Sudeste 10 Sudeste 0 -- -- 60
2017-10-26 12:00:00 19.7 5 Nordeste 11 Este 0 -- -- 72
2017-10-26 11:00:00 15.9 2 Sudeste 8 Sudeste 0 -- -- 99
2017-10-26 10:00:00 13.4 0 Calma 7 Este 0 -- -- 99
2017-10-26 09:00:00 10.3 2 Oeste 5 Noroeste 0 -- -- 98
2017-10-26 08:00:00 9.9 0 Calma 5 Noroeste 0 -- -- 97
2017-10-26 07:00:00 10.3 2 Noroeste 6 Noroeste 0 -- -- 96
2017-10-26 06:00:00 10.8 4 Oeste 6 Oeste 0 -- -- 97
2017-10-26 05:00:00 10.5 2 Noroeste 5 Noroeste 0 -- -- 97
2017-10-26 04:00:00 10.4 2 Noroeste 5 Noroeste 0 -- -- 97
2017-10-26 03:00:00 10.9 3 Noroeste 6 Oeste 0 -- -- 97
2017-10-26 02:00:00 11.2 2 Oeste 10 Sudoeste 0 -- -- 96
2017-10-26 01:00:00 12 0 Calma 8 Oeste 0 -- -- 97
2017-10-26 00:00:00 12.2 2 Oeste 8 Oeste 0 -- -- 96